Pagrindinis puslapis
METAR-TAF:

METAR-TAF

Oro uostai :

Topcliffe, Anglija

platuma: 54-12N, ilguma: 001-23W, Aukštis: 28 m

Dabartinis oras

Ataskaita buvo paskelbta 1 valandą ir 14 minutes, ne 18:50 UTC
Vėjas 3 kt iš Vakarų
Temperatūra -2°C
Drėgmė 93%
Slėgis 995 hPa
Matomumas 10 km arba daugiau

METAR: EGXZ 231850Z AUTO 27003KT 9999 NCD M02/M03 Q0995

Laikas: 20:04 (20:04 UTC)


TAF: trūkstamas

Orai ataskaitas ir orų prognozės (METAR, TAF).

turimą stotys yra geltonos ir raudonos taškus žemėlapyje.

Perkelti pele per norėdami pamatyti stoties vardą.

Tada spustelėkite, norėdami matyti oro stebėjimo ir prognozės.

Norėdami pakeisti žemėlapį: spustelėkite ant žalios mygtukų su juodo kryžiaus žemyn,; žalią mygtuką su brūkšneliu, jei norite nutolinti; arba žalių rodyklių gretimoms žemėlapius.


METAR-TAF: